Time;durP1;ratioP1;P1;durP2;ratioP2;P2;SDS_P1;SDS_P2;PMS_P1;PMS_P2;Temp;Humidity;BMP_temperature;BMP_pressure;BME280_temperature;BME280_humidity;BME280_pressure;Samples;Min_cycle;Max_cycle;Signal;HPM_P1;HPM_P2
2022/07/09 00:00:31;;;;;;;5.35;2.70;;;;;;;15.63;59.37;93842.78;2071095;69;20164;-76
2022/07/09 00:02:56;;;;;;;3.47;2.60;;;;;;;15.58;59.52;93849.59;2071542;69;20140;-75
2022/07/09 00:05:22;;;;;;;8.25;2.72;;;;;;;15.62;58.83;93846.97;2071018;69;20140;-75
2022/07/09 00:07:48;;;;;;;5.82;2.53;;;;;;;15.49;59.50;93842.66;2067908;69;20749;-75
2022/07/09 00:10:13;;;;;;;5.05;2.42;;;;;;;15.50;59.67;93846.25;2071144;69;20148;-75
2022/07/09 00:12:39;;;;;;;7.32;3.25;;;;;;;15.50;59.41;93849.81;2071010;69;20188;-76
2022/07/09 00:15:06;;;;;;;5.30;3.15;;;;;;;15.55;59.11;93847.97;2071227;69;20172;-76
2022/07/09 00:17:32;;;;;;;5.57;3.05;;;;;;;15.57;59.06;93845.25;2071169;69;20141;-76
2022/07/09 00:19:57;;;;;;;5.00;3.00;;;;;;;15.52;58.68;93841.41;2071159;69;20664;-76
2022/07/09 00:22:27;;;;;;;6.10;2.92;;;;;;;15.42;58.84;93843.63;2071043;69;20590;-75
2022/07/09 00:24:53;;;;;;;6.95;2.85;;;;;;;15.39;59.32;93841.28;2068091;69;20144;-76
2022/07/09 00:27:21;;;;;;;5.05;2.63;;;;;;;15.36;59.95;93834.78;2071497;69;20600;-73
2022/07/09 00:29:48;;;;;;;5.15;3.00;;;;;;;15.43;59.08;93842.28;2071246;69;20175;-75
2022/07/09 00:32:14;;;;;;;4.10;3.00;;;;;;;15.28;59.19;93839.19;2067918;69;20172;-76
2022/07/09 00:34:39;;;;;;;6.47;2.72;;;;;;;15.37;58.91;93835.50;2071335;69;20206;-75
2022/07/09 00:37:05;;;;;;;3.67;2.95;;;;;;;15.22;59.70;93833.91;2070953;69;20524;-75
2022/07/09 00:39:31;;;;;;;3.95;2.72;;;;;;;15.28;59.03;93825.00;2070818;69;20172;-76
2022/07/09 00:42:10;;;;;;;6.68;2.97;;;;;;;15.25;60.04;93833.38;2071651;69;20144;-74
2022/07/09 00:44:36;;;;;;;3.67;2.80;;;;;;;15.13;60.47;93831.91;2071590;69;20148;-75
2022/07/09 00:47:06;;;;;;;5.97;2.80;;;;;;;15.19;59.84;93837.97;2071645;69;20150;-74
2022/07/09 00:49:37;;;;;;;6.90;2.90;;;;;;;15.12;60.06;93836.09;2071450;69;20129;-75
2022/07/09 00:52:04;;;;;;;4.95;3.00;;;;;;;15.15;59.93;93820.69;2071313;69;20614;-75
2022/07/09 00:54:30;;;;;;;5.28;3.20;;;;;;;15.16;59.64;93825.72;2065214;69;20685;-75
2022/07/09 00:56:56;;;;;;;7.40;2.83;;;;;;;15.16;59.88;93822.91;2071378;69;20263;-76
2022/07/09 00:59:22;;;;;;;7.38;3.30;;;;;;;15.14;59.55;93822.03;2068170;69;20536;-75
2022/07/09 01:01:49;;;;;;;4.03;3.13;;;;;;;15.05;59.73;93817.97;2071351;69;20203;-76
2022/07/09 01:04:15;;;;;;;4.90;2.97;;;;;;;15.07;59.57;93825.84;2071433;69;20145;-75
2022/07/09 01:06:41;;;;;;;4.32;2.97;;;;;;;14.98;60.39;93819.69;2071362;69;20222;-76
2022/07/09 01:09:07;;;;;;;4.85;2.90;;;;;;;14.96;60.36;93818.81;2071406;69;20527;-75
2022/07/09 01:11:33;;;;;;;6.68;3.00;;;;;;;14.98;59.92;93813.25;2071410;69;20515;-75
2022/07/09 01:13:59;;;;;;;3.78;2.90;;;;;;;15.03;59.25;93820.69;2071438;69;20770;-75
2022/07/09 01:16:37;;;;;;;5.10;3.10;;;;;;;14.95;59.76;93817.34;2071360;69;20144;-75
2022/07/09 01:19:03;;;;;;;8.00;3.10;;;;;;;14.97;60.17;93818.19;2068086;69;20129;-75
2022/07/09 01:21:29;;;;;;;4.82;3.30;;;;;;;14.74;61.38;93806.81;2071440;69;20248;-76
2022/07/09 01:23:56;;;;;;;5.65;3.10;;;;;;;14.79;60.97;93811.38;2071848;69;20201;-75
2022/07/09 01:26:23;;;;;;;7.53;3.20;;;;;;;14.76;61.46;93809.06;2071726;69;20178;-75
2022/07/09 01:28:49;;;;;;;5.63;3.28;;;;;;;14.64;62.14;93812.59;2071743;69;20161;-76
2022/07/09 01:31:15;;;;;;;6.50;3.08;;;;;;;14.90;59.25;93798.59;2071394;69;20170;-76
2022/07/09 01:33:41;;;;;;;5.43;3.20;;;;;;;14.74;60.36;93804.72;2071722;69;20556;-74
2022/07/09 01:36:08;;;;;;;6.00;3.17;;;;;;;14.77;59.99;93799.94;2071456;69;20159;-74
2022/07/09 01:38:33;;;;;;;3.92;3.03;;;;;;;14.98;58.62;93808.34;2071942;69;20187;-75
2022/07/09 01:40:59;;;;;;;5.65;3.00;;;;;;;14.78;61.25;93801.41;2071669;69;20167;-74
2022/07/09 01:43:25;;;;;;;6.10;3.40;;;;;;;14.80;61.53;93798.72;2071580;69;20148;-75
2022/07/09 01:45:51;;;;;;;4.20;2.80;;;;;;;14.93;60.56;93800.19;2071836;69;20230;-76
2022/07/09 01:48:17;;;;;;;3.45;2.90;;;;;;;14.86;60.09;93801.19;2068078;69;20144;-75
2022/07/09 01:50:42;;;;;;;5.05;3.10;;;;;;;14.93;60.40;93803.03;2071495;69;20163;-75
2022/07/09 01:53:08;;;;;;;4.85;3.28;;;;;;;14.82;61.20;93790.31;2071640;69;20575;-76
2022/07/09 01:55:34;;;;;;;3.45;3.10;;;;;;;14.80;61.31;93786.59;2071830;69;20148;-76
2022/07/09 01:57:59;;;;;;;4.82;3.15;;;;;;;14.57;61.39;93796.56;2071869;69;20231;-76
2022/07/09 02:00:28;;;;;;;6.32;3.22;;;;;;;14.71;60.27;93791.06;2071857;69;20148;-76
2022/07/09 02:02:55;;;;;;;5.45;3.00;;;;;;;14.56;61.64;93792.22;2071795;69;20612;-76
2022/07/09 02:05:21;;;;;;;4.47;2.95;;;;;;;14.58;61.55;93791.63;2071936;69;20150;-76
2022/07/09 02:07:46;;;;;;;5.25;3.10;;;;;;;14.48;62.47;93791.72;2071777;69;20252;-77
2022/07/09 02:10:12;;;;;;;5.43;3.47;;;;;;;14.59;61.64;93795.94;2071983;69;20512;-76
2022/07/09 02:12:38;;;;;;;5.53;3.05;;;;;;;14.50;62.23;93797.50;2071752;69;20225;-76
2022/07/09 02:15:05;;;;;;;5.82;2.90;;;;;;;14.48;62.23;93789.63;2071826;69;20155;-76
2022/07/09 02:17:32;;;;;;;5.47;3.30;;;;;;;14.41;62.34;93787.00;2071839;69;20239;-76
2022/07/09 02:19:58;;;;;;;5.13;3.40;;;;;;;14.49;61.37;93787.53;2071825;69;20485;-76
2022/07/09 02:22:23;;;;;;;5.38;3.33;;;;;;;14.41;61.48;93792.66;2071713;69;20236;-76
2022/07/09 02:24:49;;;;;;;7.32;3.30;;;;;;;14.42;61.62;93786.38;2068686;69;20179;-76
2022/07/09 02:27:15;;;;;;;6.82;3.00;;;;;;;14.51;61.25;93784.81;2071820;69;20519;-77
2022/07/09 02:29:40;;;;;;;3.88;2.92;;;;;;;14.47;61.82;93793.03;2071881;69;20180;-76
2022/07/09 02:32:06;;;;;;;8.23;3.28;;;;;;;14.46;61.35;93789.47;2071800;69;20167;-76
2022/07/09 02:34:32;;;;;;;4.70;2.90;;;;;;;14.35;61.53;93787.34;2071618;69;20241;-75
2022/07/09 02:36:58;;;;;;;5.55;3.08;;;;;;;14.33;61.82;93786.47;2071586;69;20258;-77
2022/07/09 02:39:23;;;;;;;4.63;3.05;;;;;;;14.32;61.82;93791.38;2071779;69;20147;-77
2022/07/09 02:41:50;;;;;;;5.30;3.10;;;;;;;14.35;61.59;93789.44;2071897;69;20175;-76
2022/07/09 02:44:16;;;;;;;5.28;3.05;;;;;;;14.09;62.86;93786.38;2068536;69;20596;-76
2022/07/09 02:46:41;;;;;;;7.20;3.30;;;;;;;14.11;63.07;93791.41;2071801;69;20137;-76
2022/07/09 02:49:07;;;;;;;4.47;3.22;;;;;;;14.06;63.00;93784.75;2071900;69;20492;-76
2022/07/09 02:51:33;;;;;;;4.47;3.30;;;;;;;14.18;62.28;93787.66;2071679;69;20231;-76
2022/07/09 02:53:58;;;;;;;5.47;3.17;;;;;;;13.96;63.37;93792.59;2071764;69;20172;-77
2022/07/09 02:56:24;;;;;;;6.43;3.08;;;;;;;14.10;62.46;93781.44;2068472;69;20152;-77
2022/07/09 02:58:49;;;;;;;4.85;3.10;;;;;;;14.07;62.93;93788.34;2071722;69;20580;-77
2022/07/09 03:01:15;;;;;;;5.43;3.40;;;;;;;14.04;62.41;93773.31;2071798;69;20227;-76
2022/07/09 03:03:41;;;;;;;5.30;3.35;;;;;;;14.03;62.56;93786.00;2071615;69;20205;-76
2022/07/09 03:06:08;;;;;;;5.80;3.17;;;;;;;13.93;62.92;93774.00;2071620;69;20603;-75
2022/07/09 03:08:34;;;;;;;6.30;3.22;;;;;;;13.98;62.67;93782.16;2071861;69;20132;-76
2022/07/09 03:11:00;;;;;;;3.83;3.10;;;;;;;13.93;62.42;93783.25;2071748;69;20175;-77
2022/07/09 03:13:25;;;;;;;9.95;3.45;;;;;;;13.86;63.58;93777.78;2071701;69;20140;-77
2022/07/09 03:15:51;;;;;;;4.85;3.10;;;;;;;13.80;63.63;93780.22;2071880;69;20155;-76
2022/07/09 03:18:17;;;;;;;5.45;3.20;;;;;;;13.86;62.85;93772.84;2071832;69;20603;-76
2022/07/09 03:20:42;;;;;;;6.50;3.50;;;;;;;13.79;63.83;93767.38;2071824;69;20151;-76
2022/07/09 03:23:08;;;;;;;4.43;3.50;;;;;;;13.73;63.06;93773.41;2071605;69;20247;-76
2022/07/09 03:25:34;;;;;;;4.97;3.20;;;;;;;13.81;63.03;93773.94;2071729;69;20141;-77
2022/07/09 03:27:59;;;;;;;5.38;3.33;;;;;;;13.83;62.25;93778.97;2071678;69;20163;-76
2022/07/09 03:30:25;;;;;;;8.85;3.50;;;;;;;13.81;63.30;93776.78;2071820;69;20634;-77
2022/07/09 03:32:51;;;;;;;5.47;3.42;;;;;;;13.83;62.59;93778.97;2071769;69;20151;-77
2022/07/09 03:35:17;;;;;;;7.38;4.00;;;;;;;13.69;64.06;93775.97;2071657;69;20152;-75
2022/07/09 03:37:42;;;;;;;8.23;3.28;;;;;;;13.59;64.08;93778.84;2071602;69;20496;-76
2022/07/09 03:40:09;;;;;;;4.20;3.20;;;;;;;13.66;63.63;93774.34;2071746;69;20156;-76
2022/07/09 03:42:34;;;;;;;6.20;3.28;;;;;;;13.59;64.45;93778.84;2071700;69;20230;-76
2022/07/09 03:45:00;;;;;;;4.32;3.38;;;;;;;13.55;63.88;93764.44;2071764;69;20596;-76
2022/07/09 03:47:26;;;;;;;6.10;3.55;;;;;;;13.55;63.95;93770.09;2071793;69;20144;-76
2022/07/09 03:49:51;;;;;;;5.43;3.78;;;;;;;13.55;63.89;93764.44;2071789;69;20726;-77
2022/07/09 03:52:17;;;;;;;6.00;3.75;;;;;;;13.59;63.74;93775.28;2071584;69;20152;-76
2022/07/09 03:54:43;;;;;;;4.57;3.67;;;;;;;13.54;64.20;93777.09;2071674;69;20528;-76
2022/07/09 03:57:09;;;;;;;6.30;3.60;;;;;;;13.44;64.30;93784.91;2071687;69;20624;-76
2022/07/09 03:59:35;;;;;;;5.97;3.25;;;;;;;13.56;63.92;93771.59;2071628;69;20136;-76
2022/07/09 04:02:01;;;;;;;7.18;3.50;;;;;;;13.48;64.29;93768.22;2071694;69;20538;-77
2022/07/09 04:04:27;;;;;;;6.30;3.55;;;;;;;13.42;64.83;93774.22;2071661;69;20136;-77
2022/07/09 04:06:54;;;;;;;7.60;3.60;;;;;;;13.29;64.97;93777.56;2071565;69;20136;-75
2022/07/09 04:09:20;;;;;;;5.32;3.58;;;;;;;13.41;64.32;93772.72;2071582;69;20167;-75
2022/07/09 04:11:46;;;;;;;5.55;3.60;;;;;;;13.47;64.44;93775.97;2071534;69;20144;-75
2022/07/09 04:14:12;;;;;;;6.88;3.67;;;;;;;13.50;64.28;93767.59;2071627;69;20174;-75
2022/07/09 04:16:37;;;;;;;4.97;3.38;;;;;;;13.48;64.30;93768.97;2071993;69;20176;-75
2022/07/09 04:19:03;;;;;;;5.43;3.70;;;;;;;13.31;65.40;93774.13;2072242;69;20605;-75
2022/07/09 04:21:28;;;;;;;4.10;3.20;;;;;;;13.36;65.26;93775.88;2068822;69;20600;-75
2022/07/09 04:23:54;;;;;;;4.95;3.40;;;;;;;13.37;64.42;93771.69;2072144;69;20255;-76
2022/07/09 04:26:20;;;;;;;6.43;3.50;;;;;;;13.42;64.68;93771.38;2072165;69;20222;-76
2022/07/09 04:28:45;;;;;;;4.03;3.25;;;;;;;13.41;64.97;93786.13;2072182;69;20193;-76
2022/07/09 04:31:12;;;;;;;5.82;3.42;;;;;;;13.27;66.07;93785.91;2072205;69;20217;-76
2022/07/09 04:33:37;;;;;;;7.40;3.35;;;;;;;13.40;64.59;93787.47;2072142;69;20136;-76
2022/07/09 04:36:03;;;;;;;4.68;3.75;;;;;;;13.39;64.73;93786.72;2068939;69;20151;-74
2022/07/09 04:38:29;;;;;;;6.70;3.17;;;;;;;13.35;65.42;93797.03;2072296;69;20222;-76
2022/07/09 04:40:55;;;;;;;9.13;3.10;;;;;;;13.40;64.65;93785.38;2072135;69;20145;-74
2022/07/09 04:43:21;;;;;;;5.20;3.53;;;;;;;13.26;65.06;93787.25;2072275;69;20144;-73
2022/07/09 04:45:47;;;;;;;6.18;3.65;;;;;;;13.33;64.50;93789.16;2072279;69;20148;-73
2022/07/09 04:48:12;;;;;;;5.78;3.75;;;;;;;13.29;65.08;93790.97;2072401;69;20580;-73
2022/07/09 04:50:38;;;;;;;5.20;3.83;;;;;;;13.29;65.42;93788.88;2072396;69;20714;-73
2022/07/09 04:53:04;;;;;;;4.75;3.78;;;;;;;13.29;65.69;93782.47;2072217;69;20140;-75
2022/07/09 04:55:30;;;;;;;5.88;3.42;;;;;;;13.19;66.15;93777.59;2072420;69;20224;-73
2022/07/09 04:57:56;;;;;;;5.78;3.97;;;;;;;13.19;66.39;93776.81;2068927;69;20132;-73
2022/07/09 05:00:21;;;;;;;6.05;3.80;;;;;;;13.30;66.00;93778.31;2072067;69;20152;-74
2022/07/09 05:02:47;;;;;;;6.57;4.13;;;;;;;13.30;65.48;93781.13;2072149;69;20147;-73
2022/07/09 05:05:13;;;;;;;5.88;3.92;;;;;;;13.26;65.60;93780.84;2072185;69;20588;-73
2022/07/09 05:07:41;;;;;;;8.25;4.25;;;;;;;13.36;65.21;93784.38;2072094;69;20179;-74
2022/07/09 05:10:08;;;;;;;8.02;3.90;;;;;;;13.26;66.58;93786.50;2072126;69;20140;-74
2022/07/09 05:12:34;;;;;;;5.97;3.70;;;;;;;13.26;66.07;93780.84;2072010;69;20164;-77
2022/07/09 05:15:00;;;;;;;6.30;4.15;;;;;;;13.27;66.53;93779.50;2071917;69;20229;-74
2022/07/09 05:17:25;;;;;;;6.82;4.35;;;;;;;13.34;65.33;93784.97;2068775;69;20145;-76
2022/07/09 05:19:51;;;;;;;6.28;4.18;;;;;;;13.41;65.19;93775.53;2071999;69;20149;-74
2022/07/09 05:22:17;;;;;;;4.90;4.00;;;;;;;13.41;65.03;93772.72;2071981;69;20524;-75
2022/07/09 05:24:43;;;;;;;6.50;4.18;;;;;;;13.34;65.92;93773.66;2072097;69;20140;-75
2022/07/09 05:27:09;;;;;;;7.38;3.70;;;;;;;13.56;64.10;93768.00;2068558;69;20323;-75
2022/07/09 05:29:36;;;;;;;6.30;3.70;;;;;;;13.47;65.05;93775.22;2068605;69;20144;-74
2022/07/09 05:32:02;;;;;;;7.95;3.72;;;;;;;13.59;63.40;93780.94;2071797;69;20580;-75
2022/07/09 05:34:28;;;;;;;6.88;4.18;;;;;;;13.62;64.14;93780.47;2071871;69;20148;-75
2022/07/09 05:36:54;;;;;;;3.85;3.13;;;;;;;13.62;64.14;93771.25;2071652;69;20144;-74
2022/07/09 05:39:20;;;;;;;5.00;3.70;;;;;;;13.59;64.70;93776.03;2071792;69;20233;-75
2022/07/09 05:41:46;;;;;;;5.88;3.55;;;;;;;13.64;63.84;93774.94;2071726;69;20596;-74
2022/07/09 05:44:12;;;;;;;6.45;3.63;;;;;;;13.41;64.46;93772.72;2071820;69;20155;-75
2022/07/09 05:46:38;;;;;;;6.70;3.63;;;;;;;13.61;64.55;93769.78;2071498;69;20136;-74
2022/07/09 05:49:04;;;;;;;4.70;3.47;;;;;;;13.69;64.12;93776.69;2071603;69;20180;-74
2022/07/09 05:51:29;;;;;;;5.72;3.40;;;;;;;13.80;63.93;93775.28;2071600;69;20168;-74
2022/07/09 05:53:55;;;;;;;4.72;3.40;;;;;;;13.80;63.02;93783.03;2071737;69;20152;-74
2022/07/09 05:56:21;;;;;;;4.97;3.65;;;;;;;13.83;63.75;93781.81;2071711;69;20227;-74
2022/07/09 05:58:47;;;;;;;4.57;3.55;;;;;;;13.80;64.51;93778.13;2071726;69;20177;-74
2022/07/09 06:01:13;;;;;;;7.43;3.17;;;;;;;13.92;63.22;93775.34;2071721;69;20677;-74
2022/07/09 06:03:40;;;;;;;5.72;3.33;;;;;;;13.88;63.87;93775.06;2071657;69;20168;-74
2022/07/09 06:06:05;;;;;;;6.78;3.58;;;;;;;13.86;64.24;93772.13;2071531;69;20255;-74
2022/07/09 06:08:33;;;;;;;5.65;3.50;;;;;;;13.88;64.82;93775.06;2071665;69;20251;-75
2022/07/09 06:10:59;;;;;;;8.00;3.28;;;;;;;13.97;63.08;93774.25;2071601;69;20144;-74
2022/07/09 06:13:25;;;;;;;4.78;3.33;;;;;;;14.07;63.69;93771.38;2071782;69;20144;-74
2022/07/09 06:15:52;;;;;;;4.82;3.78;;;;;;;14.06;64.43;93772.69;2071921;69;20141;-74
2022/07/09 06:18:17;;;;;;;5.07;3.22;;;;;;;14.11;64.47;93774.44;2072088;69;20151;-74
2022/07/09 06:20:44;;;;;;;6.00;3.47;;;;;;;14.28;63.33;93762.81;2071763;69;20140;-74
2022/07/09 06:23:09;;;;;;;6.53;3.35;;;;;;;14.26;63.47;93764.78;2071728;69;20164;-74
2022/07/09 06:25:35;;;;;;;6.07;3.28;;;;;;;14.35;63.49;93764.69;2071790;69;20206;-74
2022/07/09 06:28:01;;;;;;;4.75;3.63;;;;;;;14.32;64.02;93762.34;2071934;69;20151;-74
2022/07/09 06:30:27;;;;;;;6.13;3.47;;;;;;;14.46;63.56;93763.22;2071823;69;20144;-74
2022/07/09 06:32:52;;;;;;;5.40;3.50;;;;;;;14.55;62.03;93762.41;2071902;69;20267;-74
2022/07/09 06:35:18;;;;;;;4.40;3.50;;;;;;;14.55;63.86;93758.84;2071828;69;20150;-74
2022/07/09 06:37:44;;;;;;;4.72;3.35;;;;;;;14.65;63.77;93756.63;2071779;69;20141;-73
2022/07/09 06:40:12;;;;;;;4.72;3.55;;;;;;;14.72;63.72;93753.59;2068223;69;20582;-74
2022/07/09 06:42:38;;;;;;;7.80;3.42;;;;;;;14.88;62.90;93750.25;2065762;69;20584;-74
2022/07/09 06:45:16;;;;;;;5.28;3.47;;;;;;;15.03;61.82;93754.69;2068412;69;20155;-74
2022/07/09 06:47:42;;;;;;;3.90;3.20;;;;;;;15.10;61.96;93754.47;2071810;69;20141;-75
2022/07/09 06:50:08;;;;;;;6.32;3.17;;;;;;;15.23;60.06;93747.44;2071648;69;20137;-74
2022/07/09 06:52:33;;;;;;;4.38;3.00;;;;;;;15.30;58.39;93743.59;2071559;69;20557;-74
2022/07/09 06:54:59;;;;;;;3.90;2.80;;;;;;;15.31;60.00;93745.09;2071700;69;20176;-75
2022/07/09 06:57:25;;;;;;;3.97;3.05;;;;;;;15.41;58.93;93737.19;2068404;69;20519;-74
2022/07/09 06:59:51;;;;;;;7.18;3.65;;;;;;;15.39;61.78;93734.22;2071916;69;20154;-75
2022/07/09 07:02:17;;;;;;;5.80;3.33;;;;;;;15.51;60.51;93742.72;2071695;69;20176;-75
2022/07/09 07:04:42;;;;;;;5.10;3.33;;;;;;;15.65;58.82;93737.91;2071819;69;20152;-74
2022/07/09 07:07:08;;;;;;;4.05;2.92;;;;;;;15.75;59.98;93737.75;2071735;69;20231;-74
2022/07/09 07:09:34;;;;;;;4.90;2.90;;;;;;;15.83;59.08;93735.38;2071685;69;20231;-74
2022/07/09 07:11:59;;;;;;;4.75;2.88;;;;;;;15.89;59.03;93732.16;2071653;69;20187;-74
2022/07/09 07:14:25;;;;;;;4.05;3.00;;;;;;;15.93;59.25;93732.38;2071800;69;20187;-74
2022/07/09 07:16:52;;;;;;;4.07;3.10;;;;;;;16.01;59.15;93724.34;2068322;69;20140;-74
2022/07/09 07:19:20;;;;;;;4.63;3.17;;;;;;;16.06;58.53;93731.72;2071748;69;20217;-74
2022/07/09 07:21:47;;;;;;;6.38;3.20;;;;;;;16.13;59.83;93733.56;2071581;69;20222;-74
2022/07/09 07:24:13;;;;;;;4.80;3.15;;;;;;;16.25;61.23;93719.28;2071635;69;20154;-75
2022/07/09 07:26:39;;;;;;;7.18;3.65;;;;;;;16.31;60.91;93724.56;2071666;69;20156;-74
2022/07/09 07:29:04;;;;;;;5.63;3.40;;;;;;;16.39;61.00;93716.50;2071623;69;20160;-74
2022/07/09 07:31:31;;;;;;;4.93;3.30;;;;;;;16.45;60.94;93711.16;2068334;69;20584;-73
2022/07/09 07:33:57;;;;;;;7.57;3.85;;;;;;;16.53;60.22;93705.91;2071713;69;20219;-73
2022/07/09 07:36:23;;;;;;;6.88;3.80;;;;;;;16.41;58.67;93697.47;2068302;69;20156;-73
2022/07/09 07:38:49;;;;;;;5.15;3.83;;;;;;;16.50;57.94;93702.22;2071819;69;20182;-73
2022/07/09 07:41:16;;;;;;;6.80;3.85;;;;;;;16.22;57.86;93689.31;2071592;69;20722;-73
2022/07/09 07:43:42;;;;;;;7.40;3.72;;;;;;;16.37;57.27;93687.97;2068308;69;20140;-74
2022/07/09 07:46:08;;;;;;;5.95;3.55;;;;;;;16.42;57.03;93689.66;2071157;69;20235;-74
2022/07/09 07:48:35;;;;;;;3.88;3.30;;;;;;;16.52;57.19;93687.38;2071641;69;20144;-73
2022/07/09 07:51:02;;;;;;;6.32;3.67;;;;;;;16.60;56.80;93676.47;2071578;69;20288;-74
2022/07/09 07:53:31;;;;;;;4.90;3.60;;;;;;;16.79;57.66;93683.16;2068401;69;20180;-74
2022/07/09 07:55:57;;;;;;;8.20;3.92;;;;;;;16.71;57.50;93680.56;2068349;69;20606;-74
2022/07/09 07:58:22;;;;;;;6.32;3.70;;;;;;;16.85;57.67;93672.81;2071622;69;20136;-74
2022/07/09 08:00:48;;;;;;;5.60;3.53;;;;;;;17.11;57.45;93672.75;2071622;69;20178;-73
2022/07/09 08:03:13;;;;;;;4.80;3.67;;;;;;;17.25;56.28;93677.06;2071530;69;20171;-74
2022/07/09 08:05:39;;;;;;;4.25;3.33;;;;;;;17.39;54.87;93667.78;2071529;69;20611;-76
2022/07/09 08:08:05;;;;;;;5.60;3.30;;;;;;;17.39;54.79;93671.34;2071498;69;20159;-74
2022/07/09 08:10:31;;;;;;;7.13;3.20;;;;;;;17.74;52.95;93661.75;2071606;69;20554;-74
2022/07/09 08:12:57;;;;;;;5.88;3.70;;;;;;;18.02;54.93;93660.28;2068163;69;20187;-75
2022/07/09 08:15:23;;;;;;;8.15;3.20;;;;;;;18.12;52.87;93656.44;2071728;69;20600;-74
2022/07/09 08:17:49;;;;;;;7.65;3.20;;;;;;;18.34;53.94;93651.81;2071768;69;20211;-75
2022/07/09 08:20:14;;;;;;;6.45;3.00;;;;;;;18.71;53.20;93648.56;2071547;69;20231;-75
2022/07/09 08:22:43;;;;;;;6.78;2.90;;;;;;;19.03;51.15;93649.28;2071534;69;20255;-75
2022/07/09 08:25:08;;;;;;;4.13;3.10;;;;;;;19.01;50.24;93642.72;2071571;69;20784;-76
2022/07/09 08:27:34;;;;;;;8.73;3.50;;;;;;;19.49;51.20;93649.09;2071688;69;20222;-76
2022/07/09 08:30:00;;;;;;;5.47;3.10;;;;;;;19.74;49.24;93639.47;2068216;69;20217;-76
2022/07/09 08:32:25;;;;;;;3.60;2.60;;;;;;;20.36;50.26;93642.69;2071670;69;20176;-76
2022/07/09 08:34:51;;;;;;;4.90;3.15;;;;;;;20.86;47.99;93641.06;2071547;69;20151;-76
2022/07/09 08:37:17;;;;;;;4.85;2.90;;;;;;;20.38;48.79;93639.88;2071427;69;20685;-75
2022/07/09 08:39:42;;;;;;;6.72;2.80;;;;;;;20.65;48.70;93630.97;2068160;69;20171;-75
2022/07/09 08:42:11;;;;;;;3.20;2.47;;;;;;;21.11;47.87;93631.22;2071779;69;20137;-75
2022/07/09 08:44:42;;;;;;;4.20;2.63;;;;;;;21.72;46.74;93627.69;2071523;69;20136;-76
2022/07/09 08:47:14;;;;;;;4.22;2.50;;;;;;;22.22;45.41;93632.91;2071425;69;20140;-76
2022/07/09 08:49:40;;;;;;;5.72;2.50;;;;;;;21.93;42.82;93629.09;2071599;69;20761;-76
2022/07/09 08:52:06;;;;;;;6.40;2.63;;;;;;;21.67;44.40;93626.09;2071435;69;20619;-76
2022/07/09 08:54:39;;;;;;;5.38;3.33;;;;;;;22.31;44.75;93628.88;2071701;69;20275;-76
2022/07/09 08:57:06;;;;;;;4.53;2.65;;;;;;;22.75;45.13;93623.06;2071623;69;20136;-75
2022/07/09 08:59:33;;;;;;;3.95;2.47;;;;;;;22.74;44.16;93621.63;2071524;69;20124;-74
2022/07/09 09:02:08;;;;;;;3.55;2.47;;;;;;;23.03;44.36;93623.22;2071569;69;20154;-74
2022/07/09 09:04:39;;;;;;;6.40;2.58;;;;;;;23.50;44.11;93621.63;2072057;69;20120;-74
2022/07/09 09:07:19;;;;;;;4.10;2.25;;;;;;;23.91;44.16;93611.22;2072031;69;20145;-74
2022/07/09 09:09:45;;;;;;;4.55;2.30;;;;;;;24.10;42.37;93601.66;2068702;69;20148;-74
2022/07/09 09:12:13;;;;;;;4.43;2.45;;;;;;;24.36;41.70;93601.56;2072125;69;20143;-74
2022/07/09 09:14:39;;;;;;;3.38;2.30;;;;;;;24.56;41.66;93601.34;2068710;69;20183;-75
2022/07/09 09:17:11;;;;;;;4.63;2.38;;;;;;;24.69;38.95;93594.41;2071983;69;20140;-75
2022/07/09 09:19:40;;;;;;;5.65;2.38;;;;;;;25.09;40.12;93583.06;2071949;69;20149;-74
2022/07/09 09:22:07;;;;;;;4.57;2.20;;;;;;;25.10;41.05;93589.56;2071888;69;20156;-74
2022/07/09 09:24:34;;;;;;;4.03;2.17;;;;;;;25.42;40.04;93586.59;2068622;69;20163;-74
2022/07/09 09:27:00;;;;;;;6.53;2.20;;;;;;;25.54;38.06;93583.94;2072104;69;20172;-75
2022/07/09 09:29:26;;;;;;;4.97;2.22;;;;;;;25.56;38.51;93578.19;2071952;69;20144;-75
2022/07/09 09:31:53;;;;;;;5.68;2.13;;;;;;;25.47;37.49;93582.34;2071938;69;20148;-75
2022/07/09 09:34:19;;;;;;;4.28;1.90;;;;;;;25.53;36.72;93582.50;2071959;69;20179;-75
2022/07/09 09:36:54;;;;;;;6.60;2.00;;;;;;;25.62;36.72;93576.88;2071567;69;20160;-75
2022/07/09 09:39:24;;;;;;;3.70;1.90;;;;;;;26.35;37.05;93575.97;2071546;69;20168;-75
2022/07/09 09:41:58;;;;;;;4.05;1.70;;;;;;;26.67;35.45;93566.38;2071780;69;20136;-75
2022/07/09 09:44:28;;;;;;;2.95;1.73;;;;;;;26.73;36.67;93563.56;2071776;69;20140;-75
2022/07/09 09:46:54;;;;;;;4.18;1.80;;;;;;;26.80;35.88;93565.13;2071686;69;20195;-75
2022/07/09 09:49:20;;;;;;;3.88;1.88;;;;;;;27.03;36.42;93551.69;2071714;69;20164;-75
2022/07/09 09:51:49;;;;;;;5.03;1.60;;;;;;;27.30;35.93;93546.25;2071828;69;20144;-75
2022/07/09 09:54:16;;;;;;;5.75;1.60;;;;;;;27.29;35.41;93548.41;2071901;69;20239;-75
2022/07/09 09:56:43;;;;;;;2.55;1.35;;;;;;;27.16;31.24;93554.75;2071864;69;20152;-75
2022/07/09 09:59:10;;;;;;;6.70;1.70;;;;;;;27.67;34.38;93538.69;2071879;69;20525;-75
2022/07/09 10:01:36;;;;;;;2.72;1.50;;;;;;;28.06;33.78;93536.19;2071878;69;20160;-75
2022/07/09 10:04:01;;;;;;;3.42;1.50;;;;;;;27.17;29.82;93535.97;2072017;69;20511;-75
2022/07/09 10:06:27;;;;;;;2.70;1.40;;;;;;;27.59;33.20;93544.41;2071839;69;20192;-75
2022/07/09 10:08:55;;;;;;;1.63;1.30;;;;;;;28.03;30.00;93535.41;2071878;69;20153;-74
2022/07/09 10:11:21;;;;;;;2.20;1.35;;;;;;;26.47;30.58;93528.53;2071717;69;20136;-75
2022/07/09 10:13:55;;;;;;;2.53;1.20;;;;;;;27.11;28.48;93520.00;2071078;69;20166;-74
2022/07/09 10:16:38;;;;;;;1.65;1.10;;;;;;;27.47;28.63;93524.75;2067134;69;20156;-76
2022/07/09 10:19:07;;;;;;;2.03;1.05;;;;;;;27.94;29.38;93524.50;2070598;69;20172;-75
2022/07/09 10:21:40;;;;;;;4.00;1.10;;;;;;;28.43;29.02;93519.09;2071109;69;20141;-76
2022/07/09 10:24:11;;;;;;;1.77;1.20;;;;;;;28.24;27.64;93524.75;2071576;69;20156;-75
2022/07/09 10:26:47;;;;;;;2.78;1.40;;;;;;;28.51;28.43;93517.00;2068265;69;20156;-75
2022/07/09 10:29:19;;;;;;;1.25;1.00;;;;;;;28.71;25.19;93518.56;2071297;69;20565;-75
2022/07/09 10:31:46;;;;;;;;;;;;;;;28.67;27.78;93509.84;2071898;69;20202;-76
2022/07/09 10:34:27;;;;;;;1.40;0.93;;;;;;;29.45;27.44;93517.44;2071467;69;20060;-76
2022/07/09 10:37:04;;;;;;;1.85;1.10;;;;;;;30.72;26.42;93517.53;2071499;69;20163;-76
2022/07/09 10:39:30;;;;;;;1.75;0.80;;;;;;;31.09;25.25;93513.06;2071524;69;20160;-76
2022/07/09 10:42:06;;;;;;;2.00;0.98;;;;;;;30.60;24.63;93518.25;2068063;69;20168;-76
2022/07/09 10:44:40;;;;;;;2.25;0.90;;;;;;;31.67;24.49;93524.47;2071564;69;20586;-76
2022/07/09 10:47:06;;;;;;;1.13;0.93;;;;;;;32.31;22.97;93519.69;2071671;69;20145;-75
2022/07/09 10:49:38;;;;;;;1.23;0.90;;;;;;;31.96;23.93;93510.47;2068242;69;20202;-77
2022/07/09 10:52:06;;;;;;;2.25;0.90;;;;;;;31.77;23.91;93518.59;2070370;69;20152;-76
2022/07/09 10:54:32;;;;;;;1.13;0.80;;;;;;;30.28;23.93;93507.41;2071625;69;20160;-76
2022/07/09 10:56:58;;;;;;;1.88;0.80;;;;;;;32.34;23.53;93512.34;2071545;69;20148;-75
2022/07/09 10:59:25;;;;;;;1.77;0.90;;;;;;;31.92;22.49;93517.03;2068344;69;20585;-74
2022/07/09 11:01:51;;;;;;;2.72;0.80;;;;;;;32.56;23.17;93512.16;2071579;69;20148;-74
2022/07/09 11:04:31;;;;;;;2.80;0.80;;;;;;;35.00;21.26;93518.34;2071690;69;20610;-75
2022/07/09 11:06:58;;;;;;;1.55;0.90;;;;;;;35.68;18.33;93526.53;2071647;69;20227;-75
2022/07/09 11:09:28;;;;;;;1.08;0.88;;;;;;;35.98;18.06;93531.03;2068383;69;20128;-75
2022/07/09 11:11:54;;;;;;;1.77;0.73;;;;;;;38.27;17.31;93526.38;2071555;69;20221;-74
2022/07/09 11:14:19;;;;;;;3.67;0.80;;;;;;;37.29;16.87;93516.75;2071582;69;20168;-75
2022/07/09 11:17:00;;;;;;;0.95;0.65;;;;;;;39.53;16.10;93506.69;2071215;69;20186;-76
2022/07/09 11:19:30;;;;;;;2.35;0.70;;;;;;;41.71;14.55;93520.00;2071538;69;20136;-75
2022/07/09 11:22:02;;;;;;;1.30;0.80;;;;;;;43.23;14.28;93523.13;2071420;69;20243;-75
2022/07/09 11:24:29;;;;;;;1.70;0.75;;;;;;;42.21;15.25;93516.97;2071512;69;20164;-72
2022/07/09 11:26:55;;;;;;;2.20;0.80;;;;;;;41.40;13.79;93524.34;2068253;69;20143;-73
2022/07/09 11:29:21;;;;;;;1.52;0.60;;;;;;;41.66;14.25;93512.88;2071683;69;20239;-74
2022/07/09 11:31:55;;;;;;;1.50;0.70;;;;;;;37.70;16.80;93507.53;2071514;69;20132;-73